Time;durP1;ratioP1;P1;durP2;ratioP2;P2;SDS_P1;SDS_P2;PMS_P1;PMS_P2;Temp;Humidity;BMP_temperature;BMP_pressure;BME280_temperature;BME280_humidity;BME280_pressure;Samples;Min_cycle;Max_cycle;Signal;HPM_P1;HPM_P2
2021/12/19 00:00:45;;;;;;;41.97;23.50;;;102.70;2227.20;;;;;;4877684;29;20071;-78
2021/12/19 00:09:22;;;;;;;46.75;27.38;;;102.60;2227.20;;;;;;4834688;29;20083;-80
2021/12/19 00:12:00;;;;;;;45.65;26.65;;;102.60;2227.20;;;;;;4828554;29;20031;-80
2021/12/19 00:14:28;;;;;;;48.95;25.35;;;102.60;2227.20;;;;;;4812965;29;20023;-80
2021/12/19 00:16:57;;;;;;;37.53;23.23;;;102.60;2227.20;;;;;;4808167;29;20059;-79
2021/12/19 00:19:50;;;;;;;40.60;23.10;;;102.60;2227.20;;;;;;4807790;30;20135;-80
2021/12/19 00:22:40;;;;;;;40.13;23.58;;;102.60;2227.20;;;;;;4777554;30;20035;-80
2021/12/19 00:25:48;;;;;;;38.60;22.40;;;102.60;2227.20;;;;;;4803435;30;20027;-80
2021/12/19 00:28:20;;;;;;;46.40;25.35;;;102.70;2227.20;;;;;;4806726;30;20048;-80
2021/12/19 00:30:59;;;;;;;49.58;24.05;;;102.60;2227.20;;;;;;4804907;30;20047;-80
2021/12/19 00:33:26;;;;;;;51.35;27.77;;;102.60;2227.20;;;;;;4805695;29;20075;-79
2021/12/19 00:36:33;;;;;;;49.72;26.73;;;102.60;2227.20;;;;;;4805760;30;20043;-80
2021/12/19 00:39:08;;;;;;;43.03;21.98;;;102.60;2227.20;;;;;;4772178;30;20104;-79
2021/12/19 00:41:39;;;;;;;50.88;30.17;;;102.60;2227.20;;;;;;4763657;30;20040;-80
2021/12/19 00:45:01;;;;;;;50.60;25.08;;;102.60;2227.20;;;;;;4769628;30;20034;-80
2021/12/19 00:47:29;;;;;;;47.72;24.05;;;102.60;2227.20;;;;;;4804937;30;20051;-79
2021/12/19 00:50:00;;;;;;;39.95;22.92;;;102.60;2227.20;;;;;;4803361;29;20118;-79
2021/12/19 00:52:34;;;;;;;43.88;25.20;;;102.60;2227.20;;;;;;4804907;29;20035;-80
2021/12/19 00:55:17;;;;;;;41.72;21.55;;;102.50;2227.20;;;;;;4807167;30;20035;-79
2021/12/19 00:57:47;;;;;;;38.97;23.52;;;102.50;2227.20;;;;;;4806834;29;20024;-79
2021/12/19 01:00:20;;;;;;;41.67;26.33;;;102.60;2227.20;;;;;;4806685;29;20054;-79
2021/12/19 01:02:56;;;;;;;41.20;23.63;;;102.60;2227.20;;;;;;4792576;30;20050;-80
2021/12/19 01:05:27;;;;;;;41.13;21.83;;;102.60;2227.20;;;;;;4808041;29;20111;-80
2021/12/19 01:07:56;;;;;;;41.88;22.75;;;102.60;2227.20;;;;;;4806082;30;20034;-79
2021/12/19 01:10:23;;;;;;;39.25;23.55;;;102.50;2227.20;;;;;;4799337;30;20058;-79
2021/12/19 01:12:50;;;;;;;42.50;23.48;;;102.60;2227.20;;;;;;4800498;30;20035;-79
2021/12/19 01:15:18;;;;;;;63.63;34.28;;;102.60;2227.20;;;;;;4816940;29;20045;-79
2021/12/19 01:17:50;;;;;;;39.35;22.98;;;102.60;2227.20;;;;;;4855644;29;20112;-79
2021/12/19 01:20:59;;;;;;;54.35;28.08;;;102.60;2227.20;;;;;;4856104;29;20147;-79
2021/12/19 01:23:30;;;;;;;46.83;25.15;;;102.60;2227.20;;;;;;4857043;29;20038;-79
2021/12/19 01:25:56;;;;;;;36.58;20.75;;;102.60;2227.20;;;;;;4839701;29;20041;-79
2021/12/19 01:28:26;;;;;;;34.03;21.27;;;102.60;2227.20;;;;;;4855985;29;20038;-79
2021/12/19 01:30:54;;;;;;;32.28;19.20;;;102.60;2227.20;;;;;;4857838;29;20093;-79
2021/12/19 01:33:24;;;;;;;37.85;20.75;;;102.60;2227.20;;;;;;4841556;29;20042;-79
2021/12/19 01:35:54;;;;;;;31.67;16.45;;;102.60;2227.20;;;;;;4827961;29;20042;-79
2021/12/19 01:52:14;;;;;;;102.30;52.17;;;102.50;2227.20;;;;;;4894889;27;20036;-80
2021/12/19 01:55:01;;;;;;;92.05;49.05;;;102.50;2227.20;;;;;;4913773;29;20033;-80
2021/12/19 01:57:37;;;;;;;96.55;51.75;;;102.40;2227.20;;;;;;4917284;29;20062;-79
2021/12/19 02:00:36;;;;;;;80.82;43.30;;;102.40;2227.20;;;;;;4913724;29;20051;-79
2021/12/19 02:03:03;;;;;;;123.00;65.30;;;102.40;2227.20;;;;;;4914754;29;20036;-79
2021/12/19 02:05:29;;;;;;;70.03;41.42;;;102.40;2227.20;;;;;;4912870;29;20124;-79
2021/12/19 02:07:56;;;;;;;50.10;28.10;;;102.50;2227.20;;;;;;4913611;29;20033;-78
2021/12/19 02:10:25;;;;;;;52.03;27.50;;;102.50;2227.20;;;;;;4897886;29;20047;-79
2021/12/19 02:12:55;;;;;;;44.72;27.35;;;102.40;2227.20;;;;;;4914103;29;20057;-79
2021/12/19 02:15:24;;;;;;;56.42;32.80;;;102.40;2227.20;;;;;;4896256;29;20049;-78
2021/12/19 02:17:54;;;;;;;46.85;30.70;;;102.40;2227.20;;;;;;4911419;29;20473;-79
2021/12/19 02:20:32;;;;;;;64.93;39.78;;;102.40;2227.20;;;;;;4913161;29;20480;-79
2021/12/19 02:22:58;;;;;;;57.92;34.50;;;102.40;2227.20;;;;;;4911539;29;20036;-79
2021/12/19 02:25:24;;;;;;;69.57;43.75;;;102.60;2227.20;;;;;;4912058;29;20021;-79
2021/12/19 02:27:50;;;;;;;53.55;28.02;;;77.70;2227.20;;;;;;4912996;29;20031;-79
2021/12/19 02:30:15;;;;;;;46.35;27.67;;;77.70;2227.20;;;;;;4911985;29;20029;-78
2021/12/19 02:32:44;;;;;;;41.13;24.40;;;77.70;2227.20;;;;;;4914900;29;20488;-80
2021/12/19 02:35:18;;;;;;;34.88;20.40;;;77.70;2227.20;;;;;;4915968;29;20036;-79
2021/12/19 02:49:30;;;;;;;;;;;77.60;2227.20;;;;;;4857467;29;20131;-79
2021/12/19 02:51:57;;;;;;;29.88;17.90;;;77.60;2227.20;;;;;;4857288;29;19984;-78
2021/12/19 02:54:30;;;;;;;28.20;18.85;;;77.60;2227.20;;;;;;4858039;29;20067;-79
2021/12/19 02:57:10;;;;;;;26.90;17.23;;;77.70;2227.20;;;;;;4858879;29;20057;-79
2021/12/19 02:59:37;;;;;;;30.45;17.80;;;77.70;2227.20;;;;;;4844885;29;20105;-79
2021/12/19 03:02:05;;;;;;;30.58;18.65;;;102.50;2227.20;;;;;;4858914;29;20046;-80
2021/12/19 03:04:33;;;;;;;33.05;20.25;;;77.50;2227.20;;;;;;4861308;29;20042;-79
2021/12/19 03:07:00;;;;;;;31.63;19.42;;;77.70;2227.20;;;;;;4861210;29;20042;-79
2021/12/19 03:18:37;;;;;;;28.15;16.23;;;77.70;2227.20;;;;;;4844634;29;20132;-80
2021/12/19 03:21:31;;;;;;;28.55;17.80;;;77.70;2227.20;;;;;;4846573;29;20046;-80
2021/12/19 03:24:41;;;;;;;37.00;17.08;;;77.70;2227.20;;;;;;4791486;30;20079;-80
2021/12/19 03:27:28;;;;;;;33.72;19.05;;;77.70;2227.20;;;;;;4776539;30;20035;-80
2021/12/19 03:30:33;;;;;;;33.05;19.98;;;77.70;2227.20;;;;;;4806645;30;20044;-80
2021/12/19 03:33:22;;;;;;;34.28;19.40;;;102.40;2227.20;;;;;;4810148;29;20031;-80
2021/12/19 03:35:50;;;;;;;32.58;19.65;;;77.70;2227.20;;;;;;4791488;30;20056;-80
2021/12/19 03:38:38;;;;;;;38.03;22.33;;;102.40;2227.20;;;;;;4781422;30;20055;-79
2021/12/19 03:44:44;;;;;;;43.22;24.38;;;102.40;2227.20;;;;;;4776917;30;20054;-80
2021/12/19 03:48:03;;;;;;;33.63;21.33;;;102.40;2227.20;;;;;;4791477;30;20063;-80
2021/12/19 03:51:37;;;;;;;37.20;20.80;;;102.50;2227.20;;;;;;4791014;29;20135;-80
2021/12/19 03:54:13;;;;;;;41.45;21.90;;;102.50;2227.20;;;;;;4757319;30;20072;-80
2021/12/19 03:57:11;;;;;;;32.20;19.90;;;102.50;2227.20;;;;;;4726103;30;20057;-80
2021/12/19 03:59:49;;;;;;;30.90;17.77;;;102.50;2227.20;;;;;;4769781;30;20582;-80
2021/12/19 04:02:27;;;;;;;34.42;20.23;;;102.60;2227.20;;;;;;4818037;29;20035;-80
2021/12/19 04:05:13;;;;;;;33.63;19.92;;;102.60;2227.20;;;;;;4814128;29;20035;-80
2021/12/19 04:07:45;;;;;;;32.85;19.05;;;102.70;2227.20;;;;;;4825946;29;20046;-80
2021/12/19 04:10:27;;;;;;;32.13;20.35;;;102.70;2227.20;;;;;;4826392;29;20034;-81
2021/12/19 04:12:57;;;;;;;31.42;18.40;;;102.80;2227.20;;;;;;4838532;29;20041;-80
2021/12/19 04:15:48;;;;;;;37.20;18.95;;;102.70;2227.20;;;;;;4880801;29;20045;-80
2021/12/19 04:18:49;;;;;;;32.70;19.23;;;102.70;2227.20;;;;;;4889599;29;20037;-79
2021/12/19 04:21:33;;;;;;;30.13;18.42;;;102.80;2227.20;;;;;;4863948;29;20084;-80
2021/12/19 04:24:47;;;;;;;32.60;19.58;;;102.80;2227.20;;;;;;4862431;29;20038;-79
2021/12/19 04:27:38;;;;;;;30.42;19.35;;;102.80;2227.20;;;;;;4846989;29;20042;-79
2021/12/19 04:30:22;;;;;;;38.33;20.08;;;102.80;2227.20;;;;;;4862428;29;20043;-79
2021/12/19 04:33:12;;;;;;;29.70;18.75;;;102.80;2227.20;;;;;;4862628;29;20045;-79
2021/12/19 04:36:02;;;;;;;33.78;18.88;;;102.80;2227.20;;;;;;4850008;29;20090;-79
2021/12/19 04:54:57;;;;;;;25.08;16.67;;;102.90;2227.20;;;;;;4770871;30;20055;-80
2021/12/19 04:57:39;;;;;;;24.98;17.10;;;102.90;2227.20;;;;;;4773926;30;20035;-80
2021/12/19 05:00:31;;;;;;;31.08;18.30;;;102.90;2227.20;;;;;;4789829;30;20032;-80
2021/12/19 05:04:08;;;;;;;26.73;16.63;;;102.90;2227.20;;;;;;4791459;29;20020;-80
2021/12/19 05:14:14;;;;;;;29.50;17.27;;;102.90;2227.20;;;;;;4756770;30;20141;-80
2021/12/19 05:16:51;;;;;;;33.72;19.67;;;103.00;2227.20;;;;;;4778827;29;20024;-80
2021/12/19 05:20:06;;;;;;;25.88;15.98;;;103.00;2227.20;;;;;;4792285;29;20048;-79
2021/12/19 05:23:12;;;;;;;26.65;16.02;;;103.00;2227.20;;;;;;4782338;30;20047;-80
2021/12/19 05:25:49;;;;;;;26.95;15.57;;;103.10;2227.20;;;;;;4794785;30;20099;-79
2021/12/19 05:28:38;;;;;;;29.95;16.92;;;103.10;2227.20;;;;;;4809506;30;20050;-79
2021/12/19 05:31:37;;;;;;;27.90;15.00;;;103.10;2227.20;;;;;;4807908;29;20044;-79
2021/12/19 05:34:13;;;;;;;29.27;17.67;;;103.10;2227.20;;;;;;4793360;30;20024;-79
2021/12/19 05:45:45;;;;;;;29.73;17.75;;;128.00;2252.80;;;;;;4844396;29;20045;-79
2021/12/19 05:48:18;;;;;;;31.17;15.73;;;103.20;2227.20;;;;;;4844466;29;20022;-79
2021/12/19 05:50:46;;;;;;;27.45;18.42;;;103.20;2227.20;;;;;;4828048;29;20090;-78
2021/12/19 05:53:15;;;;;;;25.38;15.40;;;103.30;2227.20;;;;;;4839350;29;20114;-78
2021/12/19 05:55:45;;;;;;;30.35;17.02;;;103.30;2227.20;;;;;;4846330;29;20121;-79
2021/12/19 05:58:12;;;;;;;29.48;17.02;;;103.30;2227.20;;;;;;4859041;29;20034;-78
2021/12/19 06:00:43;;;;;;;24.70;16.35;;;103.30;2227.20;;;;;;4855491;29;20022;-78
2021/12/19 06:03:10;;;;;;;24.85;15.27;;;103.30;2227.20;;;;;;4840664;29;20026;-79
2021/12/19 06:05:40;;;;;;;26.10;17.33;;;103.30;2227.20;;;;;;4842226;29;20010;-79
2021/12/19 06:08:07;;;;;;;30.95;17.20;;;103.30;2227.20;;;;;;4834773;29;20022;-79
2021/12/19 06:10:36;;;;;;;26.08;16.90;;;103.30;2227.20;;;;;;4832171;29;20034;-79
2021/12/19 06:13:37;;;;;;;27.98;17.15;;;103.30;2227.20;;;;;;4858175;29;20057;-78
2021/12/19 06:16:08;;;;;;;26.08;17.42;;;103.30;2227.20;;;;;;4853155;29;20030;-78
2021/12/19 06:18:56;;;;;;;23.27;14.73;;;128.00;2252.80;;;;;;4849857;29;20022;-79
2021/12/19 06:21:27;;;;;;;24.40;16.52;;;128.00;2252.80;;;;;;4871068;29;20037;-78
2021/12/19 06:23:54;;;;;;;28.80;17.58;;;128.00;2252.80;;;;;;4872787;29;20101;-79
2021/12/19 06:26:21;;;;;;;26.38;16.63;;;128.00;2252.80;;;;;;4876991;29;20022;-78
2021/12/19 06:29:10;;;;;;;25.92;15.88;;;128.00;2252.80;;;;;;4867624;29;20025;-79
2021/12/19 06:31:39;;;;;;;29.02;16.42;;;128.10;2252.80;;;;;;4841562;29;20062;-79
2021/12/19 06:34:11;;;;;;;26.55;15.32;;;128.10;2252.80;;;;;;4833166;29;20035;-79
2021/12/19 06:36:37;;;;;;;24.33;15.13;;;128.10;2252.80;;;;;;4815992;29;20090;-79
2021/12/19 06:39:04;;;;;;;27.08;17.25;;;128.10;2252.80;;;;;;4831045;29;20043;-78
2021/12/19 06:41:57;;;;;;;28.00;17.23;;;128.00;2252.80;;;;;;4826762;29;20082;-79
2021/12/19 06:44:23;;;;;;;26.10;16.23;;;128.00;2252.80;;;;;;4832497;29;20027;-78
2021/12/19 06:46:55;;;;;;;27.13;17.13;;;128.10;2252.80;;;;;;4819383;29;20042;-79
2021/12/19 06:49:23;;;;;;;29.35;17.65;;;128.10;2252.80;;;;;;4834236;29;20035;-78
2021/12/19 06:51:51;;;;;;;32.00;17.33;;;128.00;2252.80;;;;;;4832769;29;20054;-79
2021/12/19 06:54:21;;;;;;;23.45;14.93;;;128.00;2252.80;;;;;;4813826;29;20023;-80
2021/12/19 06:56:48;;;;;;;24.27;15.07;;;128.10;2252.80;;;;;;4842302;29;20070;-78
2021/12/19 06:59:16;;;;;;;26.73;15.98;;;128.10;2252.80;;;;;;4823212;29;20034;-79
2021/12/19 07:02:02;;;;;;;27.92;17.33;;;128.10;2252.80;;;;;;4839902;29;20014;-79
2021/12/19 07:04:30;;;;;;;24.95;17.27;;;128.10;2252.80;;;;;;4845255;29;20041;-80
2021/12/19 07:07:13;;;;;;;24.75;17.40;;;128.10;2252.80;;;;;;4840438;29;20035;-78
2021/12/19 07:10:04;;;;;;;28.70;16.30;;;128.20;2252.80;;;;;;4839414;29;20058;-79
2021/12/19 07:12:34;;;;;;;26.17;16.33;;;128.20;2252.80;;;;;;4836849;29;20082;-79
2021/12/19 07:15:00;;;;;;;20.83;15.40;;;128.30;2252.80;;;;;;4821594;29;20129;-78
2021/12/19 07:17:26;;;;;;;23.42;14.82;;;128.30;2252.80;;;;;;4813990;29;20030;-78
2021/12/19 07:19:54;;;;;;;26.27;15.68;;;128.30;2252.80;;;;;;4814194;29;20098;-79
2021/12/19 07:22:21;;;;;;;29.63;17.02;;;128.30;2252.80;;;;;;4864154;29;20033;-79
2021/12/19 07:24:47;;;;;;;34.10;19.13;;;128.30;2252.80;;;;;;4871558;29;20059;-79
2021/12/19 07:27:36;;;;;;;28.15;16.92;;;128.50;2252.80;;;;;;4846353;29;20040;-78
2021/12/19 07:30:03;;;;;;;33.97;17.23;;;128.40;2252.80;;;;;;4829929;29;20137;-79
2021/12/19 07:32:36;;;;;;;32.10;19.75;;;128.40;2252.80;;;;;;4847212;29;20049;-79
2021/12/19 07:35:45;;;;;;;32.00;18.02;;;128.40;2252.80;;;;;;4820004;29;20025;-80
2021/12/19 07:39:03;;;;;;;28.80;17.50;;;128.50;2252.80;;;;;;4812231;30;20051;-80
2021/12/19 07:41:37;;;;;;;23.45;14.50;;;128.50;2252.80;;;;;;4803838;29;20028;-79
2021/12/19 07:44:44;;;;;;;27.77;16.25;;;128.50;2252.80;;;;;;4794902;29;20028;-79
2021/12/19 07:47:34;;;;;;;31.67;18.95;;;128.70;2252.80;;;;;;4769642;30;20031;-79
2021/12/19 07:50:42;;;;;;;36.15;19.83;;;128.70;2252.80;;;;;;4758729;30;20041;-79
2021/12/19 07:53:08;;;;;;;31.55;19.35;;;128.70;2252.80;;;;;;4751404;30;20040;-79
2021/12/19 07:55:44;;;;;;;31.00;17.55;;;128.70;2252.80;;;;;;4741768;30;20044;-78
2021/12/19 07:58:11;;;;;;;;;;;128.70;2252.80;;;;;;4745193;30;20079;-79
2021/12/19 08:00:37;;;;;;;;;;;128.70;2252.80;;;;;;4743562;30;19977;-79
2021/12/19 08:03:15;;;;;;;40.30;19.27;;;128.80;2252.80;;;;;;4757520;30;19910;-80
2021/12/19 08:05:48;;;;;;;29.98;19.80;;;128.80;2252.80;;;;;;4762706;30;20040;-79
2021/12/19 08:08:25;;;;;;;34.38;20.25;;;128.90;2252.80;;;;;;4781922;30;20093;-79
2021/12/19 08:14:34;;;;;;;37.72;21.08;;;153.70;2252.80;;;;;;4765126;29;20094;-79
2021/12/19 08:18:03;;;;;;;26.10;16.33;;;153.80;2252.80;;;;;;4761718;30;20044;-78
2021/12/19 08:21:15;;;;;;;40.15;21.77;;;153.90;2252.80;;;;;;4732754;30;20092;-79
2021/12/19 08:24:14;;;;;;;34.88;21.35;;;153.70;2252.80;;;;;;4706704;30;20141;-79
2021/12/19 08:26:52;;;;;;;30.85;18.55;;;153.80;2252.80;;;;;;4688558;30;20047;-79
2021/12/19 08:34:41;;;;;;;34.30;19.70;;;154.00;2252.80;;;;;;4997848;23;20061;-78
2021/12/19 08:47:25;;;;;;;25.63;16.17;;;154.00;2252.80;;;;;;3950975;27;20036;-80
2021/12/19 08:49:58;;;;;;;23.00;15.43;;;154.00;2252.80;;;;;;4900619;29;20053;-79
2021/12/19 08:52:24;;;;;;;22.55;16.20;;;154.00;2252.80;;;;;;4914203;29;20044;-80
2021/12/19 08:54:52;;;;;;;30.63;16.13;;;154.00;2252.80;;;;;;4910028;29;20021;-78
2021/12/19 08:57:19;;;;;;;27.60;17.58;;;154.10;2252.80;;;;;;4916104;29;20055;-78
2021/12/19 08:59:47;;;;;;;34.35;20.42;;;154.10;2252.80;;;;;;4917139;29;20033;-80
2021/12/19 09:02:36;;;;;;;27.88;19.23;;;154.10;2252.80;;;;;;4914707;29;20029;-79
2021/12/19 09:05:45;;;;;;;27.10;17.20;;;154.30;2252.80;;;;;;4914408;29;20044;-79
2021/12/19 09:08:57;;;;;;;26.67;17.02;;;154.30;2252.80;;;;;;4916511;29;20028;-79
2021/12/19 09:11:38;;;;;;;25.85;16.08;;;154.30;2252.80;;;;;;4917829;29;20040;-80
2021/12/19 09:14:15;;;;;;;26.13;16.02;;;154.30;2252.80;;;;;;4909096;29;20097;-78
2021/12/19 09:16:59;;;;;;;43.58;19.63;;;154.40;2252.80;;;;;;4904075;29;20044;-79
2021/12/19 09:20:07;;;;;;;24.17;16.08;;;154.50;2252.80;;;;;;4916304;29;20092;-79
2021/12/19 09:23:20;;;;;;;29.80;17.90;;;179.30;2252.80;;;;;;4858800;29;20049;-81
2021/12/19 09:25:52;;;;;;;38.45;18.10;;;179.30;2252.80;;;;;;4816527;29;20119;-79
2021/12/19 09:29:28;;;;;;;27.80;16.25;;;179.20;2252.80;;;;;;4819149;29;20030;-80
2021/12/19 09:46:40;;;;;;;26.67;16.80;;;179.30;2252.80;;;;;;4973814;23;20053;-80
2021/12/19 09:50:05;;;;;;;41.70;22.30;;;154.50;2252.80;;;;;;4919702;29;20044;-80
2021/12/19 09:53:01;;;;;;;38.55;23.15;;;154.40;2252.80;;;;;;4862222;29;20068;-81
2021/12/19 09:55:37;;;;;;;39.30;22.55;;;179.20;2252.80;;;;;;4834447;29;20053;-81
2021/12/19 10:00:57;;;;;;;33.92;21.35;;;179.30;2252.80;;;;;;5043285;23;19923;-80
2021/12/19 10:03:23;;;;;;;41.63;23.35;;;179.40;2252.80;;;;;;4895174;29;20067;-80
2021/12/19 10:06:31;;;;;;;34.85;22.05;;;179.40;2252.80;;;;;;4867975;29;20044;-80
2021/12/19 10:09:29;;;;;;;46.88;25.08;;;179.40;2252.80;;;;;;4845460;29;20038;-81
2021/12/19 12:32:03;;;;;;;17.63;11.50;;;230.60;2252.80;;;;;;642125;23;21075;-77
2021/12/19 12:34:29;;;;;;;18.58;11.88;;;230.50;2252.80;;;;;;4879931;29;20135;-80
2021/12/19 12:36:55;;;;;;;17.63;12.05;;;230.40;2252.80;;;;;;4878803;29;20176;-84
2021/12/19 12:39:26;;;;;;;17.20;12.18;;;205.70;2252.80;;;;;;4874785;29;20026;-84
2021/12/19 12:42:04;;;;;;;17.65;11.27;;;205.70;2252.80;;;;;;4871233;29;20037;-85
2021/12/19 12:44:30;;;;;;;17.98;10.75;;;205.70;2252.80;;;;;;4869291;29;20434;-80
2021/12/19 12:46:56;;;;;;;18.63;11.10;;;205.70;2252.80;;;;;;4874355;29;20025;-80
2021/12/19 12:49:25;;;;;;;16.17;10.90;;;205.70;2252.80;;;;;;4894213;29;20056;-81
2021/12/19 12:52:01;;;;;;;16.75;10.63;;;205.60;2252.80;;;;;;4878221;29;20489;-79
2021/12/19 12:54:34;;;;;;;17.77;12.07;;;205.60;2252.80;;;;;;4894361;29;20029;-79
2021/12/19 12:57:04;;;;;;;16.50;10.93;;;205.70;2252.80;;;;;;4877792;29;20032;-79
2021/12/19 12:59:38;;;;;;;17.85;10.77;;;205.70;2252.80;;;;;;4872625;29;20048;-79
2021/12/19 13:02:14;;;;;;;17.67;10.75;;;230.40;2252.80;;;;;;4875600;29;20037;-77
2021/12/19 13:04:49;;;;;;;;;;;230.40;2252.80;;;;;;4881483;29;20028;-82
2021/12/19 13:07:16;;;;;;;21.48;11.90;;;230.40;2252.80;;;;;;4890268;29;19912;-80
2021/12/19 13:09:58;;;;;;;18.15;11.93;;;230.40;2252.80;;;;;;4900288;29;20044;-80
2021/12/19 13:12:28;;;;;;;18.30;11.38;;;230.40;2252.80;;;;;;4876849;29;20089;-85
2021/12/19 13:14:55;;;;;;;21.02;12.15;;;230.40;2252.80;;;;;;4872988;29;20066;-82
2021/12/19 13:17:37;;;;;;;21.20;12.50;;;230.40;2252.80;;;;;;4884983;29;20109;-80
2021/12/19 13:20:10;;;;;;;19.80;13.32;;;230.40;2252.80;;;;;;4872974;29;20025;-80
2021/12/19 13:22:50;;;;;;;20.92;12.70;;;230.40;2252.80;;;;;;4892672;29;20020;-81
2021/12/19 13:25:18;;;;;;;19.55;12.50;;;230.40;2252.80;;;;;;4873784;29;20392;-80
2021/12/19 13:27:48;;;;;;;17.35;10.93;;;230.40;2252.80;;;;;;4888789;29;20024;-80
2021/12/19 13:30:32;;;;;;;18.77;11.85;;;230.40;2252.80;;;;;;4864664;29;20045;-80
2021/12/19 13:32:59;;;;;;;18.20;12.20;;;230.40;2252.80;;;;;;4883519;29;20064;-79
2021/12/19 13:35:28;;;;;;;16.85;12.05;;;205.70;2252.80;;;;;;4886793;29;20039;-81
2021/12/19 13:38:05;;;;;;;22.40;13.88;;;205.70;2252.80;;;;;;4889331;29;20515;-79
2021/12/19 13:40:38;;;;;;;18.42;12.70;;;205.70;2252.80;;;;;;4888456;29;20037;-83
2021/12/19 13:43:07;;;;;;;21.08;13.15;;;205.70;2252.80;;;;;;4884787;29;20029;-83
2021/12/19 13:45:43;;;;;;;20.77;13.50;;;205.70;2252.80;;;;;;4886759;29;20041;-84
2021/12/19 13:48:20;;;;;;;;;;;205.70;2252.80;;;;;;4889684;29;20032;-80
2021/12/19 13:50:52;;;;;;;23.30;14.07;;;205.60;2252.80;;;;;;4887701;29;19967;-82
2021/12/19 13:53:18;;;;;;;28.25;13.85;;;205.60;2252.80;;;;;;4891545;29;20387;-79
2021/12/19 13:56:04;;;;;;;26.08;13.77;;;205.60;2252.80;;;;;;4883380;29;20037;-84
2021/12/19 13:58:34;;;;;;;17.50;11.40;;;205.50;2252.80;;;;;;4877601;29;20044;-83
2021/12/19 14:01:18;;;;;;;16.85;11.77;;;205.50;2252.80;;;;;;4893705;29;20564;-83
2021/12/19 14:03:59;;;;;;;22.48;13.73;;;205.50;2252.80;;;;;;4896968;29;20033;-83
2021/12/19 14:06:30;;;;;;;25.17;14.27;;;205.50;2252.80;;;;;;4898003;29;20024;-82
2021/12/19 14:09:00;;;;;;;67.88;43.47;;;205.40;2252.80;;;;;;4896991;29;20096;-83
2021/12/19 14:11:28;;;;;;;33.08;22.23;;;205.40;2252.80;;;;;;4882829;29;20128;-82
2021/12/19 14:14:26;;;;;;;36.03;20.60;;;205.40;2252.80;;;;;;4878115;29;20045;-83
2021/12/19 14:17:09;;;;;;;29.05;17.38;;;205.40;2252.80;;;;;;4893901;29;20025;-82
2021/12/19 14:19:48;;;;;;;30.73;20.05;;;205.40;2252.80;;;;;;4897998;29;20508;-83
2021/12/19 14:22:18;;;;;;;30.98;18.15;;;205.40;2252.80;;;;;;4890983;29;20092;-83
2021/12/19 14:24:56;;;;;;;32.58;19.63;;;205.30;2252.80;;;;;;4898608;29;20120;-82
2021/12/19 14:27:25;;;;;;;34.13;19.73;;;205.30;2252.80;;;;;;4898758;29;20055;-83
2021/12/19 14:30:13;;;;;;;39.22;22.33;;;205.30;2252.80;;;;;;4886215;29;20060;-83
2021/12/19 14:33:01;;;;;;;39.83;23.83;;;205.30;2252.80;;;;;;4882658;29;20068;-82
2021/12/19 14:35:33;;;;;;;37.97;22.55;;;205.30;2252.80;;;;;;4895475;29;20036;-83
2021/12/19 14:38:02;;;;;;;48.75;27.05;;;205.20;2252.80;;;;;;4898028;29;20084;-82
2021/12/19 14:40:39;;;;;;;37.35;24.15;;;205.20;2252.80;;;;;;4898636;29;20043;-83
2021/12/19 14:43:18;;;;;;;33.58;20.75;;;205.20;2252.80;;;;;;4899177;29;20092;-82
2021/12/19 14:45:49;;;;;;;28.80;17.40;;;205.20;2252.80;;;;;;4901638;29;20063;-81
2021/12/19 14:48:19;;;;;;;24.95;14.13;;;205.20;2252.80;;;;;;4899143;29;20044;-83
2021/12/19 14:50:51;;;;;;;24.67;15.77;;;205.30;2252.80;;;;;;4896039;29;20052;-83
2021/12/19 14:53:40;;;;;;;26.55;16.58;;;205.30;2252.80;;;;;;4895214;29;20040;-83
2021/12/19 14:56:26;;;;;;;22.88;13.18;;;205.30;2252.80;;;;;;4884739;29;20052;-82
2021/12/19 14:58:57;;;;;;;25.85;17.48;;;205.30;2252.80;;;;;;4888464;29;20029;-82
2021/12/19 15:01:35;;;;;;;19.77;13.75;;;205.30;2252.80;;;;;;4892888;29;20037;-83
2021/12/19 15:04:09;;;;;;;25.10;15.13;;;205.30;2252.80;;;;;;4902861;29;20032;-81
2021/12/19 15:06:45;;;;;;;22.63;15.68;;;205.30;2252.80;;;;;;4892331;29;20033;-82
2021/12/19 15:09:14;;;;;;;22.07;14.57;;;205.30;2252.80;;;;;;4894265;29;20028;-84
2021/12/19 15:11:42;;;;;;;29.85;19.23;;;205.20;2252.80;;;;;;4893635;29;20304;-84
2021/12/19 15:14:08;;;;;;;33.22;20.10;;;205.20;2252.80;;;;;;4889079;29;20045;-84
2021/12/19 15:16:35;;;;;;;32.55;20.77;;;205.30;2252.80;;;;;;4889439;29;20040;-80
2021/12/19 15:19:03;;;;;;;38.05;22.38;;;205.20;2252.80;;;;;;4901662;29;20033;-83
2021/12/19 15:21:29;;;;;;;33.83;20.58;;;205.20;2252.80;;;;;;4891184;29;20056;-83
2021/12/19 15:23:55;;;;;;;35.75;23.73;;;205.20;2252.80;;;;;;4896771;29;20119;-84
2021/12/19 15:26:22;;;;;;;37.28;21.70;;;205.20;2252.80;;;;;;4895509;29;20033;-84
2021/12/19 15:28:50;;;;;;;34.22;21.27;;;205.10;2252.80;;;;;;4890820;29;20474;-83
2021/12/19 15:31:18;;;;;;;36.03;23.17;;;205.10;2252.80;;;;;;4893761;29;20028;-83
2021/12/19 15:33:46;;;;;;;33.90;21.98;;;205.10;2252.80;;;;;;4888580;29;20056;-84
2021/12/19 15:36:14;;;;;;;34.22;22.40;;;205.10;2252.80;;;;;;4890859;29;20405;-84
2021/12/19 15:38:40;;;;;;;37.50;24.90;;;205.10;2252.80;;;;;;4892251;29;20028;-82
2021/12/19 15:41:06;;;;;;;41.33;22.27;;;205.10;2252.80;;;;;;4888115;29;20048;-84
2021/12/19 15:43:32;;;;;;;38.05;23.02;;;205.00;2252.80;;;;;;4887138;29;20021;-81
2021/12/19 15:45:58;;;;;;;45.60;26.80;;;205.00;2252.80;;;;;;4893220;29;20067;-84
2021/12/19 15:48:24;;;;;;;34.03;21.77;;;205.00;2252.80;;;;;;4894633;29;20037;-82
2021/12/19 15:50:50;;;;;;;55.85;32.45;;;204.90;2252.80;;;;;;4877267;29;20033;-82
2021/12/19 15:53:18;;;;;;;65.43;36.58;;;204.80;2252.80;;;;;;4896633;29;20069;-81
2021/12/19 15:55:47;;;;;;;78.30;44.00;;;204.80;2252.80;;;;;;4891212;29;20523;-82
2021/12/19 15:58:13;;;;;;;76.30;41.17;;;204.80;2252.80;;;;;;4899511;29;20075;-82
2021/12/19 16:00:42;;;;;;;51.10;30.08;;;180.10;2252.80;;;;;;4905525;29;20041;-84
2021/12/19 16:03:09;;;;;;;52.10;35.15;;;180.00;2252.80;;;;;;4890030;29;20481;-82
2021/12/19 16:05:35;;;;;;;44.10;29.80;;;180.00;2252.80;;;;;;4893790;29;20054;-83
2021/12/19 16:08:01;;;;;;;34.92;21.23;;;180.00;2252.80;;;;;;4901134;29;20505;-82
2021/12/19 16:10:33;;;;;;;32.92;19.48;;;180.10;2252.80;;;;;;4894007;29;20100;-81
2021/12/19 16:12:59;;;;;;;26.65;17.75;;;180.10;2252.80;;;;;;4889704;29;20033;-82
2021/12/19 16:15:25;;;;;;;28.25;18.45;;;180.10;2252.80;;;;;;4895202;29;20092;-82
2021/12/19 16:17:53;;;;;;;25.17;16.60;;;180.10;2252.80;;;;;;4888943;29;20417;-81
2021/12/19 16:20:20;;;;;;;22.08;14.35;;;180.10;2252.80;;;;;;4889449;29;20109;-81
2021/12/19 16:22:47;;;;;;;23.88;13.38;;;180.10;2252.80;;;;;;4897771;29;20025;-81
2021/12/19 16:25:14;;;;;;;21.02;13.57;;;180.10;2252.80;;;;;;4901468;29;20032;-81
2021/12/19 16:27:40;;;;;;;21.23;11.40;;;180.10;2252.80;;;;;;4906313;29;20028;-81
2021/12/19 16:30:10;;;;;;;16.92;10.85;;;180.10;2252.80;;;;;;4888318;29;20040;-81
2021/12/19 16:32:37;;;;;;;20.80;12.65;;;180.10;2252.80;;;;;;4882348;29;20056;-82
2021/12/19 16:35:05;;;;;;;14.95;9.40;;;180.10;2252.80;;;;;;4906142;29;20029;-81
2021/12/19 16:37:31;;;;;;;23.10;11.88;;;180.00;2252.80;;;;;;4899057;29;20097;-79
2021/12/19 16:39:58;;;;;;;15.85;9.65;;;180.00;2252.80;;;;;;4890088;29;20025;-81
2021/12/19 16:44:53;;;;;;;17.88;10.02;;;180.00;2252.80;;;;;;4897329;29;20158;-82
2021/12/19 16:51:01;;;;;;;18.75;10.60;;;180.00;2252.80;;;;;;4896353;29;20041;-83
2021/12/19 16:53:42;;;;;;;19.17;12.15;;;180.00;2252.80;;;;;;4895291;29;20048;-82
2021/12/19 16:56:19;;;;;;;19.83;13.07;;;179.90;2252.80;;;;;;4905433;29;20115;-81
2021/12/19 16:58:45;;;;;;;28.58;18.05;;;179.90;2252.80;;;;;;4899170;29;20037;-82
2021/12/19 17:01:11;;;;;;;24.05;14.65;;;179.90;2252.80;;;;;;4899192;29;20040;-81
2021/12/19 17:04:25;;;;;;;20.92;15.02;;;179.80;2252.80;;;;;;4901349;29;20041;-82
2021/12/19 17:07:07;;;;;;;24.00;12.63;;;179.80;2252.80;;;;;;4891219;29;20037;-82
2021/12/19 17:09:33;;;;;;;19.50;10.00;;;179.80;2252.80;;;;;;4904608;29;20061;-79